Detall de PIREP

Printer-friendly versionPDF version

[2012/02/11 22:38:00]
Flight IATA:CT1004
Pilot Number:037
Company ICAO:CAT
Aircraft Type:B752/E
PAX:161
Departing Airport: LEMH
Destination Airport: LEBL
Alternate Airport:LEPA
Online: VATSIM
Route:LUNIK A25 OSTUR
Flight Level:F180
No Slew and time accel
No pause
Crash detect
Detect pilot in Cockpit between each 30 and 45 minutes
22:38 Zero fuel Weight: 168460 Lbs, Fuel Weight: 14814 Lbs
22:38 VATSIM:LEMH 112100Z 35008G18KT 320V020 9999 FEW025 SCT048 04/M03 Q1019
22:38 VATSIM:LEBL 112200Z 15008KT 090V200 9999 FEW025 BKN040 08/M00 Q1020 NOSIG
22:41 Parking Brakes off
22:49 Take-off
22:49 Take off Weight: 182261 Lbs
22:49 Wind: 353º @ 008 Knots Heading: 008º
22:49 POS N39º 51´ 51´´ E004º 13´ 08´´
22:49 Gear Up: 193 Knots
22:49 Flaps:3 at 193 Knots
22:50 Flaps:2 at 228 Knots
22:50 Flaps:1 at 238 Knots
22:50 Flaps:0 at 221 Knots
23:00 TOC
23:00 Fuel Weight: 11477Lb
23:04 Wind:358º@012 Knots Heading: 314º Ground Speed: 387 Knots Altitude 18188 ft
23:09 TOD
23:09 Fuel Weight: 10111 Lb
23:17 Flaps:1 at 215 Knots
23:18 Flaps:2 at 188 Knots
23:19 Wind:159º@014 Knots Heading: 021º Ground Speed: 191 Knots Altitude 2831 ft
23:19 Gear Down: 185 Knots
23:19 Flaps:3 at 191 Knots
23:19 Flaps:4 at 171 Knots
23:20 Flaps:5 at 174 Knots
23:20 Flaps:6 at 159 Knots
23:21 TouchDown:Rate -263 ft/min Speed: 135 Knots
23:21 VATSIM:LEBL 112300Z 16009KT 110V230 9999 FEW025 SCT035 08/00 Q1019 NOSIG
23:21 Land
23:21 Wind:164º@009 Knots
23:21 Heading: 019º
23:21 Flight Duration: 00:32
23:21 Landing Weight: 177898 Lbs
23:21 POS N41º 18´ 06´´ E002º 05´ 28´´
23:29 Parking brakes on
23:29 Block to Block Duration: 00:48
23:29 Final Fuel: 8659 Lbls
23:29 Spent Fuel: 6155 Lbls
23:29 Flight Length: 68 NM
23:29 TOD Land Length: 35 NM

Exportar CSV

Powered by Drupal - Modified by Danger4k